sensor_id;sensor_type;location;lat;lon;timestamp;P1;durP1;ratioP1;P2;durP2;ratioP2
54795;SDS011;40693;43.884;20.340;2024-02-26T00:01:42;40.50;;;24.13;;
54795;SDS011;40693;43.884;20.340;2024-02-26T00:04:11;36.88;;;24.42;;
54795;SDS011;40693;43.884;20.340;2024-02-26T00:06:38;33.33;;;19.13;;
54795;SDS011;40693;43.884;20.340;2024-02-26T00:09:09;33.58;;;21.00;;
54795;SDS011;40693;43.884;20.340;2024-02-26T00:11:35;32.95;;;20.73;;
54795;SDS011;40693;43.884;20.340;2024-02-26T00:14:01;36.63;;;23.85;;
54795;SDS011;40693;43.884;20.340;2024-02-26T00:16:28;37.80;;;22.42;;
54795;SDS011;40693;43.884;20.340;2024-02-26T00:18:54;35.47;;;20.25;;
54795;SDS011;40693;43.884;20.340;2024-02-26T00:21:19;33.67;;;20.15;;
54795;SDS011;40693;43.884;20.340;2024-02-26T00:23:46;34.97;;;19.00;;
54795;SDS011;40693;43.884;20.340;2024-02-26T00:26:12;40.80;;;22.33;;
54795;SDS011;40693;43.884;20.340;2024-02-26T00:28:37;36.53;;;21.85;;
54795;SDS011;40693;43.884;20.340;2024-02-26T00:31:03;38.70;;;21.55;;
54795;SDS011;40693;43.884;20.340;2024-02-26T00:33:30;32.47;;;20.65;;
54795;SDS011;40693;43.884;20.340;2024-02-26T00:35:55;28.63;;;18.67;;
54795;SDS011;40693;43.884;20.340;2024-02-26T00:38:21;30.08;;;17.08;;
54795;SDS011;40693;43.884;20.340;2024-02-26T00:40:47;22.60;;;15.50;;
54795;SDS011;40693;43.884;20.340;2024-02-26T00:43:13;22.05;;;14.95;;
54795;SDS011;40693;43.884;20.340;2024-02-26T00:45:38;23.23;;;14.13;;
54795;SDS011;40693;43.884;20.340;2024-02-26T00:48:04;26.10;;;15.75;;
54795;SDS011;40693;43.884;20.340;2024-02-26T00:50:31;24.42;;;16.73;;
54795;SDS011;40693;43.884;20.340;2024-02-26T00:52:57;33.70;;;16.23;;
54795;SDS011;40693;43.884;20.340;2024-02-26T00:55:23;23.90;;;15.77;;
54795;SDS011;40693;43.884;20.340;2024-02-26T00:57:48;25.58;;;16.25;;
54795;SDS011;40693;43.884;20.340;2024-02-26T01:00:14;28.95;;;19.38;;
54795;SDS011;40693;43.884;20.340;2024-02-26T01:02:40;33.85;;;20.88;;
54795;SDS011;40693;43.884;20.340;2024-02-26T01:05:07;35.90;;;21.48;;
54795;SDS011;40693;43.884;20.340;2024-02-26T01:07:36;36.60;;;21.08;;
54795;SDS011;40693;43.884;20.340;2024-02-26T01:10:02;31.27;;;20.58;;
54795;SDS011;40693;43.884;20.340;2024-02-26T01:12:28;32.88;;;19.83;;
54795;SDS011;40693;43.884;20.340;2024-02-26T01:14:55;25.90;;;15.50;;
54795;SDS011;40693;43.884;20.340;2024-02-26T01:17:20;26.98;;;18.50;;
54795;SDS011;40693;43.884;20.340;2024-02-26T01:19:46;30.00;;;17.98;;
54795;SDS011;40693;43.884;20.340;2024-02-26T01:22:12;30.33;;;20.20;;
54795;SDS011;40693;43.884;20.340;2024-02-26T01:24:38;33.78;;;21.25;;
54795;SDS011;40693;43.884;20.340;2024-02-26T01:27:04;34.83;;;21.55;;
54795;SDS011;40693;43.884;20.340;2024-02-26T01:29:30;36.17;;;19.50;;
54795;SDS011;40693;43.884;20.340;2024-02-26T01:31:55;26.75;;;16.13;;
54795;SDS011;40693;43.884;20.340;2024-02-26T01:34:21;24.52;;;15.18;;
54795;SDS011;40693;43.884;20.340;2024-02-26T01:36:47;24.20;;;14.82;;
54795;SDS011;40693;43.884;20.340;2024-02-26T01:39:13;21.42;;;13.95;;
54795;SDS011;40693;43.884;20.340;2024-02-26T01:41:39;26.00;;;14.13;;
54795;SDS011;40693;43.884;20.340;2024-02-26T01:44:06;19.40;;;14.48;;
54795;SDS011;40693;43.884;20.340;2024-02-26T01:46:32;30.52;;;18.30;;
54795;SDS011;40693;43.884;20.340;2024-02-26T01:49:01;34.10;;;20.65;;
54795;SDS011;40693;43.884;20.340;2024-02-26T01:51:28;24.23;;;17.35;;
54795;SDS011;40693;43.884;20.340;2024-02-26T01:53:55;28.73;;;18.25;;
54795;SDS011;40693;43.884;20.340;2024-02-26T01:56:21;33.80;;;21.45;;
54795;SDS011;40693;43.884;20.340;2024-02-26T01:58:47;29.15;;;19.23;;
54795;SDS011;40693;43.884;20.340;2024-02-26T02:01:14;29.35;;;18.48;;
54795;SDS011;40693;43.884;20.340;2024-02-26T02:03:44;62.13;;;37.65;;
54795;SDS011;40693;43.884;20.340;2024-02-26T02:06:10;37.95;;;22.33;;
54795;SDS011;40693;43.884;20.340;2024-02-26T02:08:37;28.48;;;18.45;;
54795;SDS011;40693;43.884;20.340;2024-02-26T02:11:04;32.53;;;18.02;;
54795;SDS011;40693;43.884;20.340;2024-02-26T02:13:31;29.85;;;20.00;;
54795;SDS011;40693;43.884;20.340;2024-02-26T02:15:56;32.70;;;19.38;;
54795;SDS011;40693;43.884;20.340;2024-02-26T02:18:22;27.98;;;17.92;;
54795;SDS011;40693;43.884;20.340;2024-02-26T02:20:48;21.75;;;14.45;;
54795;SDS011;40693;43.884;20.340;2024-02-26T02:23:14;27.30;;;17.45;;
54795;SDS011;40693;43.884;20.340;2024-02-26T02:25:40;31.25;;;19.42;;
54795;SDS011;40693;43.884;20.340;2024-02-26T02:28:05;26.60;;;15.82;;
54795;SDS011;40693;43.884;20.340;2024-02-26T02:30:31;24.23;;;14.82;;
54795;SDS011;40693;43.884;20.340;2024-02-26T02:32:58;22.27;;;13.63;;
54795;SDS011;40693;43.884;20.340;2024-02-26T02:35:24;26.40;;;13.05;;
54795;SDS011;40693;43.884;20.340;2024-02-26T02:37:53;21.02;;;14.00;;
54795;SDS011;40693;43.884;20.340;2024-02-26T02:40:22;25.95;;;14.10;;
54795;SDS011;40693;43.884;20.340;2024-02-26T02:42:47;22.67;;;15.43;;
54795;SDS011;40693;43.884;20.340;2024-02-26T02:45:13;27.80;;;17.02;;
54795;SDS011;40693;43.884;20.340;2024-02-26T02:47:39;31.65;;;18.20;;
54795;SDS011;40693;43.884;20.340;2024-02-26T02:50:05;27.83;;;18.73;;
54795;SDS011;40693;43.884;20.340;2024-02-26T02:52:31;22.90;;;15.40;;
54795;SDS011;40693;43.884;20.340;2024-02-26T02:54:57;22.17;;;14.00;;
54795;SDS011;40693;43.884;20.340;2024-02-26T02:57:23;22.13;;;14.60;;
54795;SDS011;40693;43.884;20.340;2024-02-26T02:59:49;22.30;;;14.77;;
54795;SDS011;40693;43.884;20.340;2024-02-26T03:02:15;23.95;;;13.13;;
54795;SDS011;40693;43.884;20.340;2024-02-26T03:04:40;20.13;;;14.35;;
54795;SDS011;40693;43.884;20.340;2024-02-26T03:07:06;18.08;;;12.30;;
54795;SDS011;40693;43.884;20.340;2024-02-26T03:09:32;21.85;;;13.95;;
54795;SDS011;40693;43.884;20.340;2024-02-26T03:11:58;25.30;;;14.68;;
54795;SDS011;40693;43.884;20.340;2024-02-26T03:14:23;25.02;;;16.67;;
54795;SDS011;40693;43.884;20.340;2024-02-26T03:16:53;23.85;;;15.32;;
54795;SDS011;40693;43.884;20.340;2024-02-26T03:19:20;24.27;;;15.32;;
54795;SDS011;40693;43.884;20.340;2024-02-26T03:21:46;21.40;;;13.63;;
54795;SDS011;40693;43.884;20.340;2024-02-26T03:24:11;25.77;;;14.60;;
54795;SDS011;40693;43.884;20.340;2024-02-26T03:26:38;23.27;;;13.02;;
54795;SDS011;40693;43.884;20.340;2024-02-26T03:29:04;21.42;;;12.18;;
54795;SDS011;40693;43.884;20.340;2024-02-26T03:31:30;20.85;;;13.68;;
54795;SDS011;40693;43.884;20.340;2024-02-26T03:33:56;21.42;;;13.43;;
54795;SDS011;40693;43.884;20.340;2024-02-26T03:36:21;26.88;;;16.75;;
54795;SDS011;40693;43.884;20.340;2024-02-26T03:38:47;28.65;;;19.13;;
54795;SDS011;40693;43.884;20.340;2024-02-26T03:41:13;25.77;;;18.90;;
54795;SDS011;40693;43.884;20.340;2024-02-26T03:43:39;30.25;;;17.48;;
54795;SDS011;40693;43.884;20.340;2024-02-26T03:46:08;26.33;;;17.33;;
54795;SDS011;40693;43.884;20.340;2024-02-26T03:48:36;31.27;;;17.92;;
54795;SDS011;40693;43.884;20.340;2024-02-26T03:51:02;30.58;;;16.98;;
54795;SDS011;40693;43.884;20.340;2024-02-26T03:53:28;30.63;;;18.85;;
54795;SDS011;40693;43.884;20.340;2024-02-26T03:55:54;27.42;;;18.60;;
54795;SDS011;40693;43.884;20.340;2024-02-26T03:58:20;29.23;;;16.13;;
54795;SDS011;40693;43.884;20.340;2024-02-26T04:00:46;29.35;;;17.85;;
54795;SDS011;40693;43.884;20.340;2024-02-26T04:03:15;27.77;;;17.95;;
54795;SDS011;40693;43.884;20.340;2024-02-26T04:05:41;35.40;;;19.90;;
54795;SDS011;40693;43.884;20.340;2024-02-26T04:08:06;30.55;;;20.15;;
54795;SDS011;40693;43.884;20.340;2024-02-26T04:10:33;39.55;;;23.27;;
54795;SDS011;40693;43.884;20.340;2024-02-26T04:13:04;33.60;;;22.00;;
54795;SDS011;40693;43.884;20.340;2024-02-26T04:15:31;35.97;;;21.73;;
54795;SDS011;40693;43.884;20.340;2024-02-26T04:17:57;28.98;;;19.17;;
54795;SDS011;40693;43.884;20.340;2024-02-26T04:20:23;27.60;;;17.13;;
54795;SDS011;40693;43.884;20.340;2024-02-26T04:22:49;27.17;;;17.75;;
54795;SDS011;40693;43.884;20.340;2024-02-26T04:25:14;27.80;;;16.27;;
54795;SDS011;40693;43.884;20.340;2024-02-26T04:27:40;24.92;;;14.63;;
54795;SDS011;40693;43.884;20.340;2024-02-26T04:30:06;24.02;;;14.15;;
54795;SDS011;40693;43.884;20.340;2024-02-26T04:32:33;20.60;;;13.10;;
54795;SDS011;40693;43.884;20.340;2024-02-26T04:34:59;16.25;;;11.43;;
54795;SDS011;40693;43.884;20.340;2024-02-26T04:37:26;22.67;;;14.32;;
54795;SDS011;40693;43.884;20.340;2024-02-26T04:39:58;19.80;;;12.45;;
54795;SDS011;40693;43.884;20.340;2024-02-26T04:42:25;22.25;;;12.98;;
54795;SDS011;40693;43.884;20.340;2024-02-26T04:44:51;20.73;;;14.45;;
54795;SDS011;40693;43.884;20.340;2024-02-26T04:47:17;22.83;;;14.02;;
54795;SDS011;40693;43.884;20.340;2024-02-26T04:49:43;23.00;;;15.07;;
54795;SDS011;40693;43.884;20.340;2024-02-26T04:52:08;24.27;;;15.75;;
54795;SDS011;40693;43.884;20.340;2024-02-26T04:54:34;24.40;;;14.80;;
54795;SDS011;40693;43.884;20.340;2024-02-26T04:57:00;26.08;;;14.90;;
54795;SDS011;40693;43.884;20.340;2024-02-26T04:59:26;26.25;;;16.45;;
54795;SDS011;40693;43.884;20.340;2024-02-26T05:01:52;27.10;;;18.40;;
54795;SDS011;40693;43.884;20.340;2024-02-26T05:04:18;30.73;;;18.25;;
54795;SDS011;40693;43.884;20.340;2024-02-26T05:06:44;25.92;;;16.77;;
54795;SDS011;40693;43.884;20.340;2024-02-26T05:09:09;23.92;;;15.80;;
54795;SDS011;40693;43.884;20.340;2024-02-26T05:11:35;24.77;;;15.20;;
54795;SDS011;40693;43.884;20.340;2024-02-26T05:14:01;29.42;;;16.17;;
54795;SDS011;40693;43.884;20.340;2024-02-26T05:16:28;41.53;;;22.15;;
54795;SDS011;40693;43.884;20.340;2024-02-26T05:18:56;28.25;;;20.00;;
54795;SDS011;40693;43.884;20.340;2024-02-26T05:21:28;50.08;;;29.02;;
54795;SDS011;40693;43.884;20.340;2024-02-26T05:23:54;63.95;;;40.00;;
54795;SDS011;40693;43.884;20.340;2024-02-26T05:26:23;52.80;;;31.52;;
54795;SDS011;40693;43.884;20.340;2024-02-26T05:28:49;72.07;;;42.72;;
54795;SDS011;40693;43.884;20.340;2024-02-26T05:31:15;50.45;;;30.50;;
54795;SDS011;40693;43.884;20.340;2024-02-26T05:33:41;49.17;;;32.05;;
54795;SDS011;40693;43.884;20.340;2024-02-26T05:36:07;44.35;;;30.35;;
54795;SDS011;40693;43.884;20.340;2024-02-26T05:38:33;36.92;;;25.13;;
54795;SDS011;40693;43.884;20.340;2024-02-26T05:40:59;42.05;;;27.58;;
54795;SDS011;40693;43.884;20.340;2024-02-26T05:43:25;42.75;;;27.98;;
54795;SDS011;40693;43.884;20.340;2024-02-26T05:45:51;37.95;;;23.95;;
54795;SDS011;40693;43.884;20.340;2024-02-26T05:48:17;42.78;;;26.77;;
54795;SDS011;40693;43.884;20.340;2024-02-26T05:50:44;37.40;;;23.90;;
54795;SDS011;40693;43.884;20.340;2024-02-26T05:53:10;42.45;;;24.58;;
54795;SDS011;40693;43.884;20.340;2024-02-26T05:55:36;49.55;;;29.33;;
54795;SDS011;40693;43.884;20.340;2024-02-26T05:58:02;45.25;;;26.70;;
54795;SDS011;40693;43.884;20.340;2024-02-26T06:00:28;45.50;;;27.90;;
54795;SDS011;40693;43.884;20.340;2024-02-26T06:02:54;44.35;;;27.80;;
54795;SDS011;40693;43.884;20.340;2024-02-26T06:05:20;46.05;;;30.23;;
54795;SDS011;40693;43.884;20.340;2024-02-26T06:07:45;50.22;;;29.40;;
54795;SDS011;40693;43.884;20.340;2024-02-26T06:10:11;48.53;;;31.30;;
54795;SDS011;40693;43.884;20.340;2024-02-26T06:12:39;31.88;;;20.88;;
54795;SDS011;40693;43.884;20.340;2024-02-26T06:15:05;31.75;;;18.67;;
54795;SDS011;40693;43.884;20.340;2024-02-26T06:17:32;28.85;;;17.77;;
54795;SDS011;40693;43.884;20.340;2024-02-26T06:19:58;32.00;;;20.90;;
54795;SDS011;40693;43.884;20.340;2024-02-26T06:22:25;35.45;;;20.42;;
54795;SDS011;40693;43.884;20.340;2024-02-26T06:24:51;38.28;;;21.92;;
54795;SDS011;40693;43.884;20.340;2024-02-26T06:27:16;34.33;;;20.17;;
54795;SDS011;40693;43.884;20.340;2024-02-26T06:29:42;33.15;;;20.77;;
54795;SDS011;40693;43.884;20.340;2024-02-26T06:32:08;38.55;;;22.95;;
54795;SDS011;40693;43.884;20.340;2024-02-26T06:34:34;37.15;;;23.15;;
54795;SDS011;40693;43.884;20.340;2024-02-26T06:37:00;33.92;;;25.52;;
54795;SDS011;40693;43.884;20.340;2024-02-26T06:39:25;42.65;;;26.92;;
54795;SDS011;40693;43.884;20.340;2024-02-26T06:41:51;39.72;;;25.15;;
54795;SDS011;40693;43.884;20.340;2024-02-26T06:44:24;35.38;;;25.80;;
54795;SDS011;40693;43.884;20.340;2024-02-26T06:46:51;35.38;;;23.30;;
54795;SDS011;40693;43.884;20.340;2024-02-26T06:49:16;38.17;;;23.33;;
54795;SDS011;40693;43.884;20.340;2024-02-26T06:51:42;29.98;;;21.17;;
54795;SDS011;40693;43.884;20.340;2024-02-26T06:54:08;40.58;;;22.17;;
54795;SDS011;40693;43.884;20.340;2024-02-26T06:56:34;34.80;;;21.55;;
54795;SDS011;40693;43.884;20.340;2024-02-26T06:59:00;28.80;;;20.38;;
54795;SDS011;40693;43.884;20.340;2024-02-26T07:01:26;32.58;;;20.73;;
54795;SDS011;40693;43.884;20.340;2024-02-26T07:03:52;37.17;;;23.48;;
54795;SDS011;40693;43.884;20.340;2024-02-26T07:06:17;39.85;;;23.50;;
54795;SDS011;40693;43.884;20.340;2024-02-26T07:08:43;29.42;;;18.70;;
54795;SDS011;40693;43.884;20.340;2024-02-26T07:11:10;29.20;;;19.90;;
54795;SDS011;40693;43.884;20.340;2024-02-26T07:13:36;50.17;;;32.83;;
54795;SDS011;40693;43.884;20.340;2024-02-26T07:16:02;41.45;;;28.10;;
54795;SDS011;40693;43.884;20.340;2024-02-26T07:18:28;37.65;;;25.00;;
54795;SDS011;40693;43.884;20.340;2024-02-26T07:20:54;30.40;;;17.15;;
54795;SDS011;40693;43.884;20.340;2024-02-26T07:23:20;27.90;;;16.90;;
54795;SDS011;40693;43.884;20.340;2024-02-26T07:25:46;21.35;;;13.88;;
54795;SDS011;40693;43.884;20.340;2024-02-26T07:28:14;19.83;;;13.52;;
54795;SDS011;40693;43.884;20.340;2024-02-26T07:30:39;28.67;;;14.32;;
54795;SDS011;40693;43.884;20.340;2024-02-26T07:33:05;18.15;;;12.63;;
54795;SDS011;40693;43.884;20.340;2024-02-26T07:35:32;16.95;;;11.32;;
54795;SDS011;40693;43.884;20.340;2024-02-26T07:37:58;20.75;;;13.43;;
54795;SDS011;40693;43.884;20.340;2024-02-26T07:40:24;22.33;;;12.98;;
54795;SDS011;40693;43.884;20.340;2024-02-26T07:42:50;17.25;;;12.57;;
54795;SDS011;40693;43.884;20.340;2024-02-26T07:45:16;19.58;;;11.88;;
54795;SDS011;40693;43.884;20.340;2024-02-26T07:47:45;21.42;;;12.48;;
54795;SDS011;40693;43.884;20.340;2024-02-26T07:50:11;23.10;;;12.82;;
54795;SDS011;40693;43.884;20.340;2024-02-26T07:52:37;19.77;;;12.27;;
54795;SDS011;40693;43.884;20.340;2024-02-26T07:55:03;20.60;;;13.73;;
54795;SDS011;40693;43.884;20.340;2024-02-26T07:57:30;23.52;;;14.45;;
54795;SDS011;40693;43.884;20.340;2024-02-26T07:59:56;28.00;;;16.85;;
54795;SDS011;40693;43.884;20.340;2024-02-26T08:02:22;24.05;;;15.32;;
54795;SDS011;40693;43.884;20.340;2024-02-26T08:04:48;32.30;;;20.77;;
54795;SDS011;40693;43.884;20.340;2024-02-26T08:07:14;23.58;;;15.07;;
54795;SDS011;40693;43.884;20.340;2024-02-26T08:09:39;19.75;;;14.05;;
54795;SDS011;40693;43.884;20.340;2024-02-26T08:12:05;21.48;;;13.57;;
54795;SDS011;40693;43.884;20.340;2024-02-26T08:14:31;22.85;;;14.55;;
54795;SDS011;40693;43.884;20.340;2024-02-26T08:16:58;27.60;;;15.63;;
54795;SDS011;40693;43.884;20.340;2024-02-26T08:19:24;25.40;;;14.75;;
54795;SDS011;40693;43.884;20.340;2024-02-26T08:21:50;31.08;;;15.77;;
54795;SDS011;40693;43.884;20.340;2024-02-26T08:24:16;24.02;;;14.23;;
54795;SDS011;40693;43.884;20.340;2024-02-26T08:26:42;23.27;;;14.15;;
54795;SDS011;40693;43.884;20.340;2024-02-26T08:29:08;25.52;;;16.58;;
54795;SDS011;40693;43.884;20.340;2024-02-26T08:31:33;98.55;;;54.78;;
54795;SDS011;40693;43.884;20.340;2024-02-26T08:34:02;39.78;;;24.60;;
54795;SDS011;40693;43.884;20.340;2024-02-26T08:36:29;46.67;;;24.85;;
54795;SDS011;40693;43.884;20.340;2024-02-26T08:38:56;28.35;;;16.58;;
54795;SDS011;40693;43.884;20.340;2024-02-26T08:41:22;26.88;;;17.02;;
54795;SDS011;40693;43.884;20.340;2024-02-26T08:43:48;35.50;;;19.00;;
54795;SDS011;40693;43.884;20.340;2024-02-26T08:46:14;19.65;;;10.38;;
54795;SDS011;40693;43.884;20.340;2024-02-26T08:48:40;25.48;;;14.60;;
54795;SDS011;40693;43.884;20.340;2024-02-26T08:51:06;13.43;;;9.77;;
54795;SDS011;40693;43.884;20.340;2024-02-26T08:53:32;16.45;;;9.80;;
54795;SDS011;40693;43.884;20.340;2024-02-26T08:55:59;21.05;;;11.35;;
54795;SDS011;40693;43.884;20.340;2024-02-26T08:58:25;18.45;;;11.30;;
54795;SDS011;40693;43.884;20.340;2024-02-26T09:00:52;16.20;;;9.35;;
54795;SDS011;40693;43.884;20.340;2024-02-26T09:03:18;14.68;;;10.05;;
54795;SDS011;40693;43.884;20.340;2024-02-26T09:05:44;18.63;;;11.60;;
54795;SDS011;40693;43.884;20.340;2024-02-26T09:08:09;16.88;;;11.23;;
54795;SDS011;40693;43.884;20.340;2024-02-26T09:10:35;15.00;;;11.15;;
54795;SDS011;40693;43.884;20.340;2024-02-26T09:13:01;13.93;;;10.38;;
54795;SDS011;40693;43.884;20.340;2024-02-26T09:15:27;14.98;;;10.05;;
54795;SDS011;40693;43.884;20.340;2024-02-26T09:17:53;15.20;;;9.80;;
54795;SDS011;40693;43.884;20.340;2024-02-26T09:20:19;16.08;;;10.20;;
54795;SDS011;40693;43.884;20.340;2024-02-26T09:22:48;17.95;;;9.80;;
54795;SDS011;40693;43.884;20.340;2024-02-26T09:25:15;16.55;;;9.52;;
54795;SDS011;40693;43.884;20.340;2024-02-26T09:27:44;18.77;;;11.63;;
54795;SDS011;40693;43.884;20.340;2024-02-26T09:30:10;18.13;;;10.52;;
54795;SDS011;40693;43.884;20.340;2024-02-26T09:32:37;16.45;;;11.77;;
54795;SDS011;40693;43.884;20.340;2024-02-26T09:35:03;18.23;;;10.98;;
54795;SDS011;40693;43.884;20.340;2024-02-26T09:37:30;19.90;;;10.85;;
54795;SDS011;40693;43.884;20.340;2024-02-26T09:39:56;17.40;;;10.40;;
54795;SDS011;40693;43.884;20.340;2024-02-26T09:42:24;16.40;;;9.57;;
54795;SDS011;40693;43.884;20.340;2024-02-26T09:44:51;13.10;;;7.88;;
54795;SDS011;40693;43.884;20.340;2024-02-26T09:47:26;15.40;;;8.10;;
54795;SDS011;40693;43.884;20.340;2024-02-26T09:49:53;13.00;;;7.20;;
54795;SDS011;40693;43.884;20.340;2024-02-26T09:52:21;11.18;;;6.78;;
54795;SDS011;40693;43.884;20.340;2024-02-26T09:54:48;10.20;;;6.18;;
54795;SDS011;40693;43.884;20.340;2024-02-26T09:57:15;8.52;;;5.05;;
54795;SDS011;40693;43.884;20.340;2024-02-26T09:59:42;9.70;;;7.70;;
54795;SDS011;40693;43.884;20.340;2024-02-26T10:02:09;85.00;;;55.70;;
54795;SDS011;40693;43.884;20.340;2024-02-26T10:04:38;20.42;;;12.35;;
54795;SDS011;40693;43.884;20.340;2024-02-26T10:07:05;18.50;;;11.02;;
54795;SDS011;40693;43.884;20.340;2024-02-26T10:09:36;12.90;;;6.88;;
54795;SDS011;40693;43.884;20.340;2024-02-26T10:12:02;110.13;;;72.60;;
54795;SDS011;40693;43.884;20.340;2024-02-26T10:14:33;18.10;;;10.20;;
54795;SDS011;40693;43.884;20.340;2024-02-26T10:17:00;19.88;;;14.15;;
54795;SDS011;40693;43.884;20.340;2024-02-26T10:19:29;18.00;;;7.18;;
54795;SDS011;40693;43.884;20.340;2024-02-26T10:21:58;19.05;;;9.95;;
54795;SDS011;40693;43.884;20.340;2024-02-26T10:24:26;21.73;;;10.88;;
54795;SDS011;40693;43.884;20.340;2024-02-26T10:26:52;28.58;;;15.35;;
54795;SDS011;40693;43.884;20.340;2024-02-26T10:29:19;12.20;;;6.53;;
54795;SDS011;40693;43.884;20.340;2024-02-26T10:31:46;18.95;;;8.40;;
54795;SDS011;40693;43.884;20.340;2024-02-26T10:34:12;17.48;;;7.70;;
54795;SDS011;40693;43.884;20.340;2024-02-26T10:36:39;13.23;;;6.43;;
54795;SDS011;40693;43.884;20.340;2024-02-26T10:39:09;11.48;;;5.43;;
54795;SDS011;40693;43.884;20.340;2024-02-26T10:41:37;30.13;;;14.20;;
54795;SDS011;40693;43.884;20.340;2024-02-26T10:44:03;16.80;;;7.57;;
54795;SDS011;40693;43.884;20.340;2024-02-26T10:46:29;13.50;;;6.90;;
54795;SDS011;40693;43.884;20.340;2024-02-26T10:48:55;26.75;;;12.48;;
54795;SDS011;40693;43.884;20.340;2024-02-26T10:51:28;21.02;;;12.48;;
54795;SDS011;40693;43.884;20.340;2024-02-26T10:53:56;10.25;;;5.25;;
54795;SDS011;40693;43.884;20.340;2024-02-26T10:56:24;11.60;;;5.15;;
54795;SDS011;40693;43.884;20.340;2024-02-26T10:58:52;12.80;;;5.95;;
54795;SDS011;40693;43.884;20.340;2024-02-26T11:01:20;12.27;;;4.93;;
54795;SDS011;40693;43.884;20.340;2024-02-26T11:03:49;14.52;;;7.55;;
54795;SDS011;40693;43.884;20.340;2024-02-26T11:06:17;7.55;;;3.58;;
54795;SDS011;40693;43.884;20.340;2024-02-26T11:08:50;35.33;;;18.70;;
54795;SDS011;40693;43.884;20.340;2024-02-26T11:11:22;15.68;;;5.28;;
54795;SDS011;40693;43.884;20.340;2024-02-26T11:13:51;19.65;;;9.13;;
54795;SDS011;40693;43.884;20.340;2024-02-26T11:16:22;24.30;;;13.70;;
54795;SDS011;40693;43.884;20.340;2024-02-26T11:18:50;8.98;;;5.00;;
54795;SDS011;40693;43.884;20.340;2024-02-26T11:21:20;30.00;;;12.68;;
54795;SDS011;40693;43.884;20.340;2024-02-26T11:23:56;19.85;;;9.38;;
54795;SDS011;40693;43.884;20.340;2024-02-26T11:26:22;17.45;;;8.15;;
54795;SDS011;40693;43.884;20.340;2024-02-26T11:28:49;46.63;;;23.45;;
54795;SDS011;40693;43.884;20.340;2024-02-26T11:31:17;37.88;;;20.13;;
54795;SDS011;40693;43.884;20.340;2024-02-26T11:33:50;35.00;;;17.50;;
54795;SDS011;40693;43.884;20.340;2024-02-26T11:36:16;32.70;;;19.00;;
54795;SDS011;40693;43.884;20.340;2024-02-26T11:38:43;17.13;;;9.13;;
54795;SDS011;40693;43.884;20.340;2024-02-26T11:41:09;12.73;;;7.38;;
54795;SDS011;40693;43.884;20.340;2024-02-26T11:49:02;16.95;;;6.65;;
54795;SDS011;40693;43.884;20.340;2024-02-26T11:51:50;19.38;;;8.40;;
54795;SDS011;40693;43.884;20.340;2024-02-26T11:59:47;11.07;;;4.13;;
54795;SDS011;40693;43.884;20.340;2024-02-26T12:02:37;6.43;;;4.35;;
54795;SDS011;40693;43.884;20.340;2024-02-26T12:05:25;5.43;;;3.70;;
54795;SDS011;40693;43.884;20.340;2024-02-26T12:07:54;13.07;;;4.60;;
54795;SDS011;40693;43.884;20.340;2024-02-26T12:10:25;8.10;;;4.13;;
54795;SDS011;40693;43.884;20.340;2024-02-26T12:13:04;13.77;;;7.18;;
54795;SDS011;40693;43.884;20.340;2024-02-26T12:15:43;7.40;;;3.65;;
54795;SDS011;40693;43.884;20.340;2024-02-26T12:18:10;10.60;;;3.83;;
54795;SDS011;40693;43.884;20.340;2024-02-26T12:20:41;9.75;;;5.20;;
54795;SDS011;40693;43.884;20.340;2024-02-26T12:23:07;9.20;;;3.47;;
54795;SDS011;40693;43.884;20.340;2024-02-26T12:25:32;11.27;;;5.55;;
54795;SDS011;40693;43.884;20.340;2024-02-26T12:27:59;11.82;;;4.18;;
54795;SDS011;40693;43.884;20.340;2024-02-26T12:30:25;15.50;;;4.78;;
54795;SDS011;40693;43.884;20.340;2024-02-26T12:32:52;12.73;;;4.00;;
54795;SDS011;40693;43.884;20.340;2024-02-26T12:35:22;8.85;;;4.45;;
54795;SDS011;40693;43.884;20.340;2024-02-26T12:37:49;9.45;;;4.80;;
54795;SDS011;40693;43.884;20.340;2024-02-26T12:40:16;8.95;;;5.45;;
54795;SDS011;40693;43.884;20.340;2024-02-26T12:42:43;7.90;;;4.15;;
54795;SDS011;40693;43.884;20.340;2024-02-26T12:45:10;4.53;;;3.30;;
54795;SDS011;40693;43.884;20.340;2024-02-26T12:47:37;11.73;;;4.78;;
54795;SDS011;40693;43.884;20.340;2024-02-26T12:50:03;10.23;;;4.75;;
54795;SDS011;40693;43.884;20.340;2024-02-26T12:52:33;11.48;;;5.78;;
54795;SDS011;40693;43.884;20.340;2024-02-26T12:55:03;8.90;;;4.95;;
54795;SDS011;40693;43.884;20.340;2024-02-26T12:57:31;10.13;;;4.97;;
54795;SDS011;40693;43.884;20.340;2024-02-26T12:59:58;8.10;;;4.53;;
54795;SDS011;40693;43.884;20.340;2024-02-26T13:02:25;6.93;;;4.28;;
54795;SDS011;40693;43.884;20.340;2024-02-26T13:04:52;11.82;;;3.50;;
54795;SDS011;40693;43.884;20.340;2024-02-26T13:07:20;7.97;;;4.40;;
54795;SDS011;40693;43.884;20.340;2024-02-26T13:09:46;11.02;;;5.65;;
54795;SDS011;40693;43.884;20.340;2024-02-26T13:12:12;11.73;;;5.43;;
54795;SDS011;40693;43.884;20.340;2024-02-26T13:14:39;10.18;;;3.72;;
54795;SDS011;40693;43.884;20.340;2024-02-26T13:17:05;8.20;;;3.60;;
54795;SDS011;40693;43.884;20.340;2024-02-26T13:19:31;10.27;;;5.53;;
54795;SDS011;40693;43.884;20.340;2024-02-26T13:22:06;9.05;;;5.22;;
54795;SDS011;40693;43.884;20.340;2024-02-26T13:24:35;9.65;;;3.65;;
54795;SDS011;40693;43.884;20.340;2024-02-26T13:27:02;6.95;;;3.50;;
54795;SDS011;40693;43.884;20.340;2024-02-26T13:29:31;10.98;;;4.88;;
54795;SDS011;40693;43.884;20.340;2024-02-26T13:31:57;18.10;;;9.63;;
54795;SDS011;40693;43.884;20.340;2024-02-26T13:34:26;28.08;;;14.30;;
54795;SDS011;40693;43.884;20.340;2024-02-26T13:36:53;21.48;;;10.73;;
54795;SDS011;40693;43.884;20.340;2024-02-26T13:39:23;29.00;;;17.92;;
54795;SDS011;40693;43.884;20.340;2024-02-26T13:41:50;18.33;;;8.00;;
54795;SDS011;40693;43.884;20.340;2024-02-26T13:44:16;15.13;;;8.93;;
54795;SDS011;40693;43.884;20.340;2024-02-26T13:46:43;11.50;;;7.03;;
54795;SDS011;40693;43.884;20.340;2024-02-26T13:49:09;11.45;;;4.78;;
54795;SDS011;40693;43.884;20.340;2024-02-26T13:51:36;10.93;;;4.80;;
54795;SDS011;40693;43.884;20.340;2024-02-26T13:54:02;8.20;;;5.07;;
54795;SDS011;40693;43.884;20.340;2024-02-26T13:56:29;10.15;;;5.72;;
54795;SDS011;40693;43.884;20.340;2024-02-26T13:58:55;15.45;;;6.57;;
54795;SDS011;40693;43.884;20.340;2024-02-26T14:01:20;10.80;;;5.88;;
54795;SDS011;40693;43.884;20.340;2024-02-26T14:03:46;8.45;;;3.78;;
54795;SDS011;40693;43.884;20.340;2024-02-26T14:06:12;9.55;;;4.85;;
54795;SDS011;40693;43.884;20.340;2024-02-26T14:08:38;13.00;;;6.38;;
54795;SDS011;40693;43.884;20.340;2024-02-26T14:11:03;14.43;;;4.47;;
54795;SDS011;40693;43.884;20.340;2024-02-26T14:13:29;9.07;;;3.95;;
54795;SDS011;40693;43.884;20.340;2024-02-26T14:15:56;10.52;;;4.28;;
54795;SDS011;40693;43.884;20.340;2024-02-26T14:18:22;33.15;;;21.17;;
54795;SDS011;40693;43.884;20.340;2024-02-26T14:20:48;30.75;;;14.20;;
54795;SDS011;40693;43.884;20.340;2024-02-26T14:23:13;23.90;;;11.98;;